createdAt,value
2018-06-09T00:00:57.570Z,19.65
2018-06-09T00:03:27.217Z,19.76
2018-06-09T00:05:56.879Z,19.79
2018-06-09T00:08:26.590Z,19.84
2018-06-09T00:10:56.232Z,19.88
2018-06-09T00:13:25.896Z,19.86
2018-06-09T00:15:55.601Z,19.90
2018-06-09T00:18:25.268Z,19.73
2018-06-09T00:20:54.945Z,19.88
2018-06-09T00:23:24.667Z,19.65
2018-06-09T00:25:54.323Z,19.77
2018-06-09T00:28:24.002Z,19.67
2018-06-09T00:30:53.697Z,19.71
2018-06-09T00:33:23.357Z,19.51
2018-06-09T00:35:53.100Z,19.64
2018-06-09T00:38:22.738Z,19.60
2018-06-09T00:40:52.413Z,19.45
2018-06-09T00:43:22.083Z,19.21
2018-06-09T00:45:51.716Z,19.18
2018-06-09T00:48:21.452Z,19.22
2018-06-09T00:50:51.112Z,19.35
2018-06-09T00:53:20.777Z,19.48
2018-06-09T00:55:50.542Z,19.48
2018-06-09T00:58:20.180Z,19.49
2018-06-09T01:00:49.836Z,19.53
2018-06-09T01:03:19.580Z,19.44
2018-06-09T01:05:49.244Z,19.43
2018-06-09T01:08:19.855Z,19.54
2018-06-09T01:10:49.518Z,19.48
2018-06-09T01:13:19.220Z,19.49
2018-06-09T01:15:48.872Z,19.49
2018-06-09T01:18:18.528Z,19.48
2018-06-09T01:20:48.221Z,19.49
2018-06-09T01:23:17.875Z,19.44
2018-06-09T01:25:47.557Z,19.20
2018-06-09T01:28:17.464Z,19.03
2018-06-09T01:30:47.153Z,18.92
2018-06-09T01:33:16.805Z,19.09
2018-06-09T01:35:46.535Z,19.16
2018-06-09T01:38:16.211Z,19.16
2018-06-09T01:40:45.870Z,19.11
2018-06-09T01:43:15.584Z,19.27
2018-06-09T01:45:46.176Z,19.23
2018-06-09T01:48:15.883Z,19.28
2018-06-09T01:50:45.536Z,19.32
2018-06-09T01:53:15.248Z,19.29
2018-06-09T01:55:44.876Z,19.31
2018-06-09T01:58:14.563Z,19.37
2018-06-09T02:00:44.340Z,19.38
2018-06-09T02:03:14.015Z,19.26
2018-06-09T02:05:43.698Z,19.21
2018-06-09T02:08:13.380Z,19.09
2018-06-09T02:10:43.048Z,19.15
2018-06-09T02:13:12.757Z,19.17
2018-06-09T02:15:42.444Z,19.14
2018-06-09T02:18:12.147Z,19.15
2018-06-09T02:20:41.836Z,19.08
2018-06-09T02:23:11.509Z,19.12
2018-06-09T02:25:41.212Z,19.17
2018-06-09T02:28:10.986Z,19.14
2018-06-09T02:30:40.656Z,19.03
2018-06-09T02:33:10.353Z,18.96
2018-06-09T02:35:40.026Z,18.98
2018-06-09T02:38:09.695Z,18.95
2018-06-09T02:40:39.474Z,18.90
2018-06-09T02:43:09.128Z,18.91
2018-06-09T02:45:38.785Z,18.77
2018-06-09T02:48:08.483Z,18.72
2018-06-09T02:50:38.155Z,18.79
2018-06-09T02:53:08.169Z,18.83
2018-06-09T02:55:37.841Z,18.83
2018-06-09T02:58:07.525Z,18.85
2018-06-09T03:00:37.216Z,18.75
2018-06-09T03:03:06.960Z,18.64
2018-06-09T03:05:36.645Z,18.61
2018-06-09T03:08:06.324Z,18.58
2018-06-09T03:10:35.988Z,18.65
2018-06-09T03:13:05.692Z,18.61
2018-06-09T03:15:35.427Z,18.68
2018-06-09T03:18:05.103Z,18.66
2018-06-09T03:20:34.771Z,18.70
2018-06-09T03:23:04.464Z,18.61
2018-06-09T03:25:34.123Z,18.47
2018-06-09T03:28:03.808Z,18.40
2018-06-09T03:30:33.496Z,18.30
2018-06-09T03:33:03.180Z,18.30
2018-06-09T03:35:32.853Z,18.49
2018-06-09T03:38:02.567Z,18.63
2018-06-09T03:40:32.248Z,18.72
2018-06-09T03:43:02.321Z,18.74
2018-06-09T03:45:31.992Z,18.70
2018-06-09T03:48:01.653Z,18.62
2018-06-09T03:50:31.356Z,18.68
2018-06-09T03:53:01.008Z,18.78
2018-06-09T03:55:30.663Z,18.86
2018-06-09T03:58:00.363Z,18.85
2018-06-09T04:00:30.009Z,18.75
2018-06-09T04:02:59.680Z,18.66
2018-06-09T04:05:29.384Z,18.74
2018-06-09T04:07:59.035Z,18.63
2018-06-09T04:10:28.704Z,18.67
2018-06-09T04:12:58.403Z,18.74
2018-06-09T04:15:28.055Z,18.85
2018-06-09T04:17:57.732Z,18.94
2018-06-09T04:20:27.469Z,18.94
2018-06-09T04:22:57.148Z,18.87
2018-06-09T04:25:26.810Z,18.87
2018-06-09T04:27:56.540Z,18.95
2018-06-09T04:30:26.199Z,18.90
2018-06-09T04:32:55.862Z,18.85
2018-06-09T04:35:25.567Z,18.82
2018-06-09T04:37:55.239Z,18.89
2018-06-09T04:40:24.888Z,18.87
2018-06-09T04:42:54.576Z,18.93
2018-06-09T04:45:24.232Z,19.00
2018-06-09T04:47:53.871Z,18.95
2018-06-09T04:50:23.604Z,18.91
2018-06-09T04:52:53.285Z,19.05
2018-06-09T04:55:22.964Z,19.21
2018-06-09T04:57:52.677Z,19.21
2018-06-09T05:00:22.308Z,19.26
2018-06-09T05:02:51.907Z,19.22
2018-06-09T05:05:21.580Z,19.28
2018-06-09T05:07:51.223Z,19.33
2018-06-09T05:10:20.864Z,19.36
2018-06-09T05:12:50.571Z,19.48
2018-06-09T05:15:20.215Z,19.53
2018-06-09T05:17:49.855Z,19.60
2018-06-09T05:20:19.548Z,19.71
2018-06-09T05:22:49.180Z,19.75
2018-06-09T05:25:18.832Z,19.93
2018-06-09T05:27:48.523Z,20.01
2018-06-09T05:30:18.172Z,20.07
2018-06-09T05:32:47.797Z,20.19
2018-06-09T05:35:17.521Z,20.39
2018-06-09T05:37:47.163Z,20.56
2018-06-09T05:40:16.824Z,20.80
2018-06-09T05:42:46.521Z,21.00
2018-06-09T05:45:16.210Z,21.14
2018-06-09T05:47:45.861Z,21.30
2018-06-09T05:50:15.594Z,21.47
2018-06-09T05:52:45.252Z,21.49
2018-06-09T05:55:14.900Z,21.54
2018-06-09T05:57:44.588Z,21.65
2018-06-09T06:00:14.243Z,21.70
2018-06-09T06:02:43.883Z,21.70
2018-06-09T06:05:13.572Z,21.81
2018-06-09T06:07:43.207Z,21.83
2018-06-09T06:10:12.892Z,21.94
2018-06-09T06:12:42.561Z,22.07
2018-06-09T06:15:12.212Z,22.23
2018-06-09T06:17:41.820Z,22.38
2018-06-09T06:20:11.516Z,22.44
2018-06-09T06:22:41.160Z,22.51
2018-06-09T06:25:10.844Z,22.57
2018-06-09T06:27:40.524Z,22.68
2018-06-09T06:30:10.184Z,22.83
2018-06-09T06:32:39.826Z,22.84
2018-06-09T06:35:09.585Z,22.93
2018-06-09T06:37:39.236Z,23.07
2018-06-09T06:40:08.887Z,23.09
2018-06-09T06:42:38.644Z,23.23
2018-06-09T06:45:08.259Z,23.31
2018-06-09T06:47:37.898Z,23.36
2018-06-09T06:50:07.615Z,23.55
2018-06-09T06:52:37.243Z,23.64
2018-06-09T06:55:06.973Z,23.70
2018-06-09T06:57:36.713Z,23.68
2018-06-09T07:00:06.376Z,23.78
2018-06-09T07:02:36.141Z,23.88
2018-06-09T07:05:05.812Z,23.92
2018-06-09T07:07:35.549Z,24.04
2018-06-09T07:10:05.235Z,24.07
2018-06-09T07:12:35.405Z,24.06
2018-06-09T07:15:05.231Z,23.99
2018-06-09T07:17:34.946Z,23.89
2018-06-09T07:20:04.688Z,23.93
2018-06-09T07:22:34.379Z,24.02
2018-06-09T07:25:04.153Z,24.22
2018-06-09T07:27:33.820Z,24.29
2018-06-09T07:30:03.697Z,24.40
2018-06-09T07:32:33.449Z,24.46
2018-06-09T07:35:03.199Z,24.36
2018-06-09T07:37:32.883Z,24.44
2018-06-09T07:40:02.635Z,24.54
2018-06-09T07:42:32.402Z,24.66
2018-06-09T07:45:02.176Z,24.87
2018-06-09T07:47:31.796Z,24.99
2018-06-09T07:50:01.534Z,25.13
2018-06-09T07:52:31.210Z,25.24
2018-06-09T07:55:00.876Z,25.47
2018-06-09T07:57:30.608Z,25.68
2018-06-09T08:00:00.271Z,25.84
2018-06-09T08:02:30.090Z,25.89
2018-06-09T08:07:20.800Z,25.97
2018-06-09T08:09:50.612Z,26.04
2018-06-09T08:12:20.280Z,26.08
2018-06-09T08:14:49.991Z,26.10
2018-06-09T08:17:19.697Z,26.30
2018-06-09T08:19:49.372Z,26.24
2018-06-09T08:22:19.077Z,26.40
2018-06-09T08:24:48.756Z,26.41
2018-06-09T08:27:18.408Z,26.46
2018-06-09T08:29:48.117Z,26.55
2018-06-09T08:32:17.812Z,26.48
2018-06-09T08:34:47.490Z,26.44
2018-06-09T08:37:17.212Z,26.50
2018-06-09T08:39:46.892Z,26.58
2018-06-09T08:42:16.609Z,26.69
2018-06-09T08:44:46.428Z,26.75
2018-06-09T08:47:16.177Z,26.71
2018-06-09T08:49:45.843Z,26.61
2018-06-09T08:52:15.578Z,26.50
2018-06-09T08:54:45.320Z,26.46
2018-06-09T08:57:15.079Z,26.59
2018-06-09T08:59:44.740Z,26.66
2018-06-09T09:02:14.407Z,26.69
2018-06-09T09:04:44.140Z,26.90
2018-06-09T09:07:14.013Z,27.04
2018-06-09T09:09:43.748Z,27.18
2018-06-09T09:12:13.505Z,27.33
2018-06-09T09:14:43.206Z,27.37
2018-06-09T09:17:12.889Z,27.35
2018-06-09T09:19:42.644Z,27.28
2018-06-09T09:22:12.306Z,27.29
2018-06-09T09:24:41.979Z,27.30
2018-06-09T09:27:11.692Z,27.30
2018-06-09T09:29:41.516Z,27.32
2018-06-09T09:32:11.257Z,27.37
2018-06-09T09:34:41.012Z,27.31
2018-06-09T09:37:10.679Z,27.34
2018-06-09T09:39:40.376Z,27.45
2018-06-09T09:42:10.110Z,27.64
2018-06-09T09:44:39.756Z,27.67
2018-06-09T09:47:09.604Z,27.76
2018-06-09T09:49:39.252Z,28.02
2018-06-09T09:52:09.147Z,28.06
2018-06-09T09:54:40.368Z,28.14
2018-06-09T09:57:10.068Z,28.20
2018-06-09T09:59:39.737Z,28.34
2018-06-09T10:02:09.456Z,28.54
2018-06-09T10:04:39.195Z,28.54
2018-06-09T10:07:08.861Z,28.62
2018-06-09T10:09:38.584Z,28.68
2018-06-09T10:12:08.284Z,28.77
2018-06-09T10:14:37.913Z,28.94
2018-06-09T10:17:07.573Z,28.99
2018-06-09T10:19:37.271Z,28.95
2018-06-09T10:22:07.506Z,28.90
2018-06-09T10:24:37.222Z,29.02
2018-06-09T10:27:06.902Z,29.14
2018-06-09T10:29:36.569Z,29.45
2018-06-09T10:32:06.341Z,29.50
2018-06-09T10:34:36.001Z,29.53
2018-06-09T10:37:05.669Z,29.56
2018-06-09T10:39:36.027Z,29.63
2018-06-09T10:42:05.725Z,29.64
2018-06-09T10:44:35.445Z,29.76
2018-06-09T10:47:05.174Z,29.71
2018-06-09T10:49:34.859Z,29.70
2018-06-09T10:52:04.554Z,29.82
2018-06-09T10:54:34.268Z,29.91
2018-06-09T10:57:03.960Z,30.11
2018-06-09T10:59:33.652Z,30.18
2018-06-09T11:02:03.429Z,30.25
2018-06-09T11:04:33.108Z,30.25
2018-06-09T11:07:02.764Z,30.21
2018-06-09T11:09:32.468Z,30.24
2018-06-09T11:12:02.118Z,30.24
2018-06-09T11:14:31.780Z,30.18
2018-06-09T11:17:01.472Z,30.21
2018-06-09T11:19:31.132Z,30.37
2018-06-09T11:22:00.787Z,30.62
2018-06-09T11:24:30.592Z,30.91
2018-06-09T11:27:00.268Z,30.97
2018-06-09T11:29:29.926Z,31.13
2018-06-09T11:31:59.615Z,31.20
2018-06-09T11:34:29.272Z,31.24
2018-06-09T11:36:58.931Z,31.31
2018-06-09T11:39:28.641Z,31.28
2018-06-09T11:41:58.299Z,31.46
2018-06-09T11:44:27.971Z,31.45
2018-06-09T11:46:57.727Z,31.59
2018-06-09T11:49:27.385Z,31.68
2018-06-09T11:51:57.080Z,31.80
2018-06-09T11:54:26.815Z,31.89
2018-06-09T11:56:56.660Z,31.97
2018-06-09T11:59:26.396Z,32.15
2018-06-09T12:01:56.064Z,32.24
2018-06-09T12:04:25.732Z,32.33
2018-06-09T12:06:55.444Z,32.58
2018-06-09T12:09:25.107Z,32.62
2018-06-09T12:12:01.121Z,32.72
2018-06-09T12:14:30.764Z,32.67
2018-06-09T12:17:00.419Z,32.81
2018-06-09T12:19:30.121Z,32.80
2018-06-09T12:21:59.751Z,33.03
2018-06-09T12:24:29.412Z,33.03
2018-06-09T12:26:59.096Z,32.76
2018-06-09T12:29:28.739Z,33.03
2018-06-09T12:31:58.386Z,33.05
2018-06-09T12:34:28.079Z,32.94
2018-06-09T12:36:57.710Z,32.91
2018-06-09T12:39:27.367Z,32.83
2018-06-09T12:41:57.068Z,32.93
2018-06-09T12:44:26.728Z,32.93
2018-06-09T12:46:56.388Z,33.10
2018-06-09T12:49:26.630Z,33.12
2018-06-09T12:51:56.273Z,33.11
2018-06-09T12:54:25.923Z,33.22
2018-06-09T12:56:55.632Z,33.34
2018-06-09T12:59:25.256Z,33.39
2018-06-09T13:01:54.885Z,33.60
2018-06-09T13:04:24.583Z,33.61
2018-06-09T13:06:54.207Z,33.64
2018-06-09T13:09:23.836Z,33.82
2018-06-09T13:11:53.499Z,33.93
2018-06-09T13:14:23.127Z,34.04
2018-06-09T13:16:52.756Z,34.04
2018-06-09T13:19:22.440Z,34.04
2018-06-09T13:21:52.068Z,33.98
2018-06-09T13:24:21.708Z,34.01
2018-06-09T13:26:51.408Z,34.14
2018-06-09T13:29:21.036Z,33.90
2018-06-09T13:31:50.685Z,33.71
2018-06-09T13:34:20.403Z,33.51
2018-06-09T13:36:50.055Z,33.20
2018-06-09T13:39:19.700Z,32.90
2018-06-09T13:41:49.379Z,32.99
2018-06-09T13:44:19.043Z,33.27
2018-06-09T13:46:48.714Z,33.24
2018-06-09T13:49:18.424Z,33.32
2018-06-09T13:51:48.246Z,33.48
2018-06-09T13:54:17.898Z,33.58
2018-06-09T13:56:47.603Z,33.71
2018-06-09T13:59:17.243Z,33.82
2018-06-09T14:01:46.888Z,33.73
2018-06-09T14:04:16.604Z,33.64
2018-06-09T14:06:46.297Z,33.64
2018-06-09T14:09:15.979Z,33.60
2018-06-09T14:11:45.668Z,33.59
2018-06-09T14:14:15.321Z,33.53
2018-06-09T14:16:44.969Z,33.65
2018-06-09T14:19:14.678Z,33.83
2018-06-09T14:21:44.352Z,33.97
2018-06-09T14:24:14.080Z,33.90
2018-06-09T14:26:43.756Z,33.76
2018-06-09T14:29:13.476Z,33.94
2018-06-09T14:31:43.148Z,33.83
2018-06-09T14:34:12.797Z,33.56
2018-06-09T14:36:42.477Z,33.26
2018-06-09T14:39:12.133Z,33.10
2018-06-09T14:41:41.791Z,32.96
2018-06-09T14:44:11.500Z,32.83
2018-06-09T14:46:41.163Z,32.65
2018-06-09T14:49:10.817Z,32.44
2018-06-09T14:51:40.662Z,32.21
2018-06-09T14:54:10.372Z,31.91
2018-06-09T14:56:40.104Z,31.77
2018-06-09T14:59:09.746Z,31.64
2018-06-09T15:01:39.409Z,31.57
2018-06-09T15:04:09.115Z,31.49
2018-06-09T15:06:38.740Z,31.40
2018-06-09T15:09:09.344Z,31.32
2018-06-09T15:11:39.009Z,31.28
2018-06-09T15:14:08.658Z,31.26
2018-06-09T15:16:38.413Z,31.30
2018-06-09T15:19:08.083Z,31.30
2018-06-09T15:21:37.757Z,31.24
2018-06-09T15:24:07.518Z,31.21
2018-06-09T15:26:37.192Z,31.14
2018-06-09T15:29:06.835Z,31.07
2018-06-09T15:31:36.555Z,31.06
2018-06-09T15:34:06.236Z,31.05
2018-06-09T15:36:36.721Z,31.03
2018-06-09T15:39:07.868Z,31.06
2018-06-09T15:41:37.627Z,31.00
2018-06-09T15:44:07.315Z,31.01
2018-06-09T15:46:37.207Z,30.97
2018-06-09T15:49:06.805Z,30.94
2018-06-09T15:51:36.459Z,30.82
2018-06-09T15:54:06.200Z,30.70
2018-06-09T15:56:35.954Z,30.61
2018-06-09T15:59:05.618Z,30.51
2018-06-09T16:01:35.316Z,30.49
2018-06-09T16:04:05.120Z,30.45
2018-06-09T16:06:34.819Z,30.42
2018-06-09T16:09:06.700Z,30.48
2018-06-09T16:11:36.560Z,30.42
2018-06-09T16:14:06.343Z,30.41
2018-06-09T16:16:35.995Z,30.32
2018-06-09T16:19:05.705Z,30.28
2018-06-09T16:21:35.385Z,30.25
2018-06-09T16:24:05.070Z,30.15
2018-06-09T16:26:34.728Z,30.14
2018-06-09T16:29:04.515Z,30.15
2018-06-09T16:31:34.134Z,30.17
2018-06-09T16:34:03.768Z,30.16
2018-06-09T16:36:33.496Z,30.12
2018-06-09T16:39:03.228Z,30.12
2018-06-09T16:41:32.844Z,30.15
2018-06-09T16:44:02.540Z,30.10
2018-06-09T16:46:32.171Z,30.12
2018-06-09T16:49:02.068Z,30.14
2018-06-09T16:51:31.723Z,30.15
2018-06-09T16:54:01.379Z,30.19
2018-06-09T16:56:31.040Z,30.17
2018-06-09T16:59:00.688Z,30.17
2018-06-09T17:01:30.394Z,30.19
2018-06-09T17:04:00.140Z,30.20
2018-06-09T17:06:30.156Z,30.26
2018-06-09T17:08:59.807Z,30.24
2018-06-09T17:11:29.512Z,30.17
2018-06-09T17:13:59.178Z,30.04
2018-06-09T17:16:28.776Z,29.92
2018-06-09T17:18:58.444Z,29.65
2018-06-09T17:21:28.072Z,29.50
2018-06-09T17:23:57.700Z,29.31
2018-06-09T17:26:27.383Z,29.21
2018-06-09T17:28:57.020Z,29.08
2018-06-09T17:31:26.711Z,29.01
2018-06-09T17:33:56.415Z,28.87
2018-06-09T17:36:26.056Z,28.85
2018-06-09T17:38:55.691Z,28.81
2018-06-09T17:41:25.380Z,28.66
2018-06-09T17:43:55.019Z,28.61
2018-06-09T17:46:24.652Z,28.58
2018-06-09T17:48:54.964Z,28.41
2018-06-09T17:51:24.609Z,28.45
2018-06-09T17:53:54.320Z,28.42
2018-06-09T17:56:23.992Z,28.32
2018-06-09T17:58:53.671Z,28.28
2018-06-09T18:01:23.307Z,28.22
2018-06-09T18:03:53.067Z,28.19
2018-06-09T18:06:22.700Z,28.12
2018-06-09T18:08:52.328Z,28.08
2018-06-09T18:11:22.028Z,28.01
2018-06-09T18:13:51.687Z,28.00
2018-06-09T18:16:21.395Z,27.95
2018-06-09T18:18:51.051Z,27.89
2018-06-09T18:21:20.712Z,27.81
2018-06-09T18:23:50.431Z,27.71
2018-06-09T18:26:20.430Z,27.69
2018-06-09T18:28:50.163Z,27.67
2018-06-09T18:31:19.852Z,27.64
2018-06-09T18:33:49.569Z,27.54
2018-06-09T18:36:19.881Z,27.54
2018-06-09T18:38:49.588Z,27.36
2018-06-09T18:41:19.353Z,27.15
2018-06-09T18:43:49.106Z,26.96
2018-06-09T18:46:18.781Z,27.12
2018-06-09T18:48:48.479Z,27.05
2018-06-09T18:51:18.167Z,27.11
2018-06-09T18:53:47.876Z,27.19
2018-06-09T18:56:17.625Z,27.19
2018-06-09T18:58:47.342Z,27.13
2018-06-09T19:01:17.192Z,27.14
2018-06-09T19:03:46.863Z,27.16
2018-06-09T19:06:16.605Z,27.16
2018-06-09T19:08:46.279Z,27.08
2018-06-09T19:11:16.055Z,27.04
2018-06-09T19:13:45.714Z,27.00
2018-06-09T19:16:15.368Z,26.95
2018-06-09T19:18:45.140Z,27.00
2018-06-09T19:21:14.808Z,27.02
2018-06-09T19:23:44.512Z,26.97
2018-06-09T19:26:14.248Z,26.88
2018-06-09T19:28:43.950Z,26.79
2018-06-09T19:31:13.599Z,26.56
2018-06-09T19:33:43.312Z,26.31
2018-06-09T19:36:13.096Z,26.17
2018-06-09T19:38:42.848Z,26.04
2018-06-09T19:41:12.576Z,26.13
2018-06-09T19:43:42.240Z,26.10
2018-06-09T19:46:12.068Z,25.96
2018-06-09T19:48:41.728Z,26.04
2018-06-09T19:51:11.388Z,26.11
2018-06-09T19:53:41.080Z,26.01
2018-06-09T19:56:10.746Z,25.67
2018-06-09T19:58:40.742Z,25.52
2018-06-09T20:01:10.460Z,25.69
2018-06-09T20:03:40.166Z,25.74
2018-06-09T20:06:09.853Z,25.71
2018-06-09T20:08:39.588Z,25.75
2018-06-09T20:11:09.244Z,25.72
2018-06-09T20:13:38.887Z,25.45
2018-06-09T20:16:08.568Z,25.17
2018-06-09T20:18:38.212Z,25.05
2018-06-09T20:21:07.872Z,25.04
2018-06-09T20:23:37.579Z,25.18
2018-06-09T20:26:07.240Z,25.01
2018-06-09T20:28:37.080Z,25.11
2018-06-09T20:31:06.747Z,25.05
2018-06-09T20:33:36.464Z,25.15
2018-06-09T20:36:06.156Z,25.16
2018-06-09T20:38:35.788Z,25.19
2018-06-09T20:41:05.483Z,25.08
2018-06-09T20:43:35.181Z,25.08
2018-06-09T20:46:04.935Z,25.09
2018-06-09T20:48:34.600Z,25.07
2018-06-09T20:51:04.396Z,25.08
2018-06-09T20:53:34.120Z,25.09
2018-06-09T20:56:03.804Z,25.12
2018-06-09T20:58:39.343Z,24.94
2018-06-09T21:01:09.123Z,24.85
2018-06-09T21:03:38.760Z,24.65
2018-06-09T21:06:08.463Z,24.41
2018-06-09T21:08:38.098Z,24.40
2018-06-09T21:11:07.807Z,24.33
2018-06-09T21:13:37.527Z,24.48
2018-06-09T21:16:07.178Z,24.52
2018-06-09T21:18:36.850Z,24.58
2018-06-09T21:21:06.550Z,24.56
2018-06-09T21:23:36.191Z,24.48
2018-06-09T21:26:05.872Z,24.54
2018-06-09T21:28:40.780Z,24.54
2018-06-09T21:31:15.531Z,24.54
2018-06-09T21:34:01.546Z,24.33
2018-06-09T21:36:35.276Z,24.40
2018-06-09T21:39:14.704Z,24.36
2018-06-09T21:41:48.435Z,24.45
2018-06-09T21:44:23.319Z,24.45
2018-06-09T21:46:53.006Z,24.47
2018-06-09T21:49:22.692Z,24.41
2018-06-09T21:51:52.386Z,24.40
2018-06-09T21:54:22.057Z,24.29
2018-06-09T21:56:51.712Z,24.29
2018-06-09T21:59:21.412Z,24.24
2018-06-09T22:01:51.075Z,24.12
2018-06-09T22:04:20.720Z,24.21
2018-06-09T22:06:50.481Z,23.98
2018-06-09T22:09:20.183Z,23.86
2018-06-09T22:11:49.834Z,23.94
2018-06-09T22:14:19.548Z,23.87
2018-06-09T22:16:49.215Z,24.03
2018-06-09T22:19:18.876Z,24.16
2018-06-09T22:21:48.632Z,24.13
2018-06-09T22:24:18.295Z,23.92
2018-06-09T22:26:47.952Z,23.73
2018-06-09T22:29:17.658Z,23.83
2018-06-09T22:31:47.308Z,23.83
2018-06-09T22:34:16.972Z,23.81
2018-06-09T22:36:46.371Z,23.60
2018-06-09T22:39:15.836Z,23.39
2018-06-09T22:41:45.555Z,23.27
2018-06-09T22:44:15.243Z,23.15
2018-06-09T22:46:44.928Z,23.09
2018-06-09T22:49:14.604Z,23.24
2018-06-09T22:51:44.312Z,23.09
2018-06-09T22:54:13.959Z,23.04
2018-06-09T22:56:43.620Z,23.02
2018-06-09T22:59:13.371Z,23.03
2018-06-09T23:01:43.031Z,22.95
2018-06-09T23:04:12.697Z,22.90
2018-06-09T23:06:42.412Z,23.05
2018-06-09T23:09:12.199Z,22.89
2018-06-09T23:11:41.844Z,22.87
2018-06-09T23:14:11.556Z,22.91
2018-06-09T23:16:41.187Z,23.05
2018-06-09T23:19:10.848Z,22.99
2018-06-09T23:21:40.574Z,22.95
2018-06-09T23:24:10.285Z,23.00
2018-06-09T23:26:39.964Z,23.04
2018-06-09T23:29:09.647Z,22.96
2018-06-09T23:31:39.308Z,22.98
2018-06-09T23:34:08.941Z,22.88
2018-06-09T23:36:38.852Z,22.87
2018-06-09T23:39:08.592Z,22.82
2018-06-09T23:41:38.284Z,22.80
2018-06-09T23:44:07.941Z,22.76
2018-06-09T23:46:37.606Z,22.89
2018-06-09T23:49:07.312Z,22.97
2018-06-09T23:51:37.009Z,22.97
2018-06-09T23:54:06.775Z,23.04
2018-06-09T23:56:36.452Z,23.04
2018-06-09T23:59:06.110Z,22.91
